Terminal Aerodrome Forecast
Issued by NWS

Home | Current Version | Previous Version | Text Only | Print | Product List | Glossary On
Versions: 1 2 3 4 5 6 7 8 9 10 11 12 13 14 15 16
000
FTAK31 PAJN 181720
TAFAJN
TAF
PAJN 181720Z 1818/1918 00000KT P6SM VCSH FEW003 OVC060
     FM182100 08003KT P6SM SCT020 BKN060
     FM190600 08002KT P6SM SCT100=

USA.gov is the U.S. government's official web portal to all federal, state and local government web resources and services.